sensor_id;sensor_type;location;lat;lon;timestamp;P1;durP1;ratioP1;P2;durP2;ratioP2
77589;SDS011;66746;51.328;12.332;2023-03-03T00:00:05;28.52;;;12.05;;
77589;SDS011;66746;51.328;12.332;2023-03-03T00:02:40;26.92;;;12.90;;
77589;SDS011;66746;51.328;12.332;2023-03-03T00:05:23;32.58;;;11.77;;
77589;SDS011;66746;51.328;12.332;2023-03-03T00:07:51;30.33;;;12.98;;
77589;SDS011;66746;51.328;12.332;2023-03-03T00:10:17;31.88;;;13.10;;
77589;SDS011;66746;51.328;12.332;2023-03-03T00:12:45;29.75;;;13.45;;
77589;SDS011;66746;51.328;12.332;2023-03-03T00:15:17;33.35;;;12.48;;
77589;SDS011;66746;51.328;12.332;2023-03-03T00:17:45;28.33;;;13.10;;
77589;SDS011;66746;51.328;12.332;2023-03-03T00:20:26;30.40;;;13.10;;
77589;SDS011;66746;51.328;12.332;2023-03-03T00:22:57;30.70;;;12.52;;
77589;SDS011;66746;51.328;12.332;2023-03-03T00:25:29;29.85;;;13.43;;
77589;SDS011;66746;51.328;12.332;2023-03-03T00:27:59;28.25;;;11.63;;
77589;SDS011;66746;51.328;12.332;2023-03-03T00:30:27;31.02;;;12.57;;
77589;SDS011;66746;51.328;12.332;2023-03-03T00:32:54;29.20;;;12.90;;
77589;SDS011;66746;51.328;12.332;2023-03-03T00:35:22;25.42;;;11.35;;
77589;SDS011;66746;51.328;12.332;2023-03-03T00:37:53;27.95;;;11.43;;
77589;SDS011;66746;51.328;12.332;2023-03-03T00:40:22;28.02;;;11.48;;
77589;SDS011;66746;51.328;12.332;2023-03-03T00:42:51;27.92;;;11.77;;
77589;SDS011;66746;51.328;12.332;2023-03-03T00:45:26;26.08;;;12.23;;
77589;SDS011;66746;51.328;12.332;2023-03-03T00:47:56;27.48;;;12.00;;
77589;SDS011;66746;51.328;12.332;2023-03-03T00:50:24;24.35;;;11.30;;
77589;SDS011;66746;51.328;12.332;2023-03-03T00:52:59;26.48;;;11.88;;
77589;SDS011;66746;51.328;12.332;2023-03-03T00:55:39;23.10;;;11.80;;
77589;SDS011;66746;51.328;12.332;2023-03-03T00:58:06;27.52;;;11.63;;
77589;SDS011;66746;51.328;12.332;2023-03-03T01:00:38;22.65;;;9.75;;
77589;SDS011;66746;51.328;12.332;2023-03-03T01:03:09;20.60;;;9.43;;
77589;SDS011;66746;51.328;12.332;2023-03-03T01:05:38;28.63;;;12.25;;
77589;SDS011;66746;51.328;12.332;2023-03-03T01:08:06;24.33;;;11.25;;
77589;SDS011;66746;51.328;12.332;2023-03-03T01:10:34;25.20;;;10.23;;
77589;SDS011;66746;51.328;12.332;2023-03-03T01:13:03;19.98;;;11.27;;
77589;SDS011;66746;51.328;12.332;2023-03-03T01:15:30;22.30;;;11.52;;
77589;SDS011;66746;51.328;12.332;2023-03-03T01:17:57;25.65;;;11.48;;
77589;SDS011;66746;51.328;12.332;2023-03-03T01:20:23;25.02;;;10.20;;
77589;SDS011;66746;51.328;12.332;2023-03-03T01:22:50;24.75;;;11.25;;
77589;SDS011;66746;51.328;12.332;2023-03-03T01:25:18;22.38;;;11.40;;
77589;SDS011;66746;51.328;12.332;2023-03-03T01:27:45;21.75;;;10.05;;
77589;SDS011;66746;51.328;12.332;2023-03-03T01:30:11;24.13;;;10.73;;
77589;SDS011;66746;51.328;12.332;2023-03-03T01:32:38;23.55;;;10.02;;
77589;SDS011;66746;51.328;12.332;2023-03-03T01:35:07;24.00;;;11.30;;
77589;SDS011;66746;51.328;12.332;2023-03-03T01:37:35;26.30;;;9.85;;
77589;SDS011;66746;51.328;12.332;2023-03-03T01:40:01;26.30;;;11.35;;
77589;SDS011;66746;51.328;12.332;2023-03-03T01:42:30;26.70;;;11.02;;
77589;SDS011;66746;51.328;12.332;2023-03-03T01:45:12;25.02;;;10.70;;
77589;SDS011;66746;51.328;12.332;2023-03-03T01:47:41;24.42;;;11.57;;
77589;SDS011;66746;51.328;12.332;2023-03-03T01:50:13;25.67;;;11.18;;
77589;SDS011;66746;51.328;12.332;2023-03-03T01:52:45;23.52;;;9.90;;
77589;SDS011;66746;51.328;12.332;2023-03-03T01:55:13;26.40;;;11.82;;
77589;SDS011;66746;51.328;12.332;2023-03-03T01:57:46;24.92;;;11.82;;
77589;SDS011;66746;51.328;12.332;2023-03-03T02:00:17;22.73;;;10.95;;
77589;SDS011;66746;51.328;12.332;2023-03-03T02:02:45;23.08;;;10.73;;
77589;SDS011;66746;51.328;12.332;2023-03-03T02:05:14;20.48;;;10.70;;
77589;SDS011;66746;51.328;12.332;2023-03-03T02:07:41;22.02;;;9.90;;
77589;SDS011;66746;51.328;12.332;2023-03-03T02:10:10;18.73;;;9.60;;
77589;SDS011;66746;51.328;12.332;2023-03-03T02:12:39;21.83;;;10.77;;
77589;SDS011;66746;51.328;12.332;2023-03-03T02:15:16;21.67;;;10.88;;
77589;SDS011;66746;51.328;12.332;2023-03-03T02:17:45;21.98;;;9.40;;
77589;SDS011;66746;51.328;12.332;2023-03-03T02:20:14;20.05;;;9.77;;
77589;SDS011;66746;51.328;12.332;2023-03-03T02:22:47;18.35;;;8.48;;
77589;SDS011;66746;51.328;12.332;2023-03-03T02:25:20;23.02;;;10.85;;
77589;SDS011;66746;51.328;12.332;2023-03-03T02:27:57;21.88;;;10.43;;
77589;SDS011;66746;51.328;12.332;2023-03-03T02:30:23;23.88;;;10.45;;
77589;SDS011;66746;51.328;12.332;2023-03-03T02:32:50;22.27;;;9.25;;
77589;SDS011;66746;51.328;12.332;2023-03-03T02:35:25;23.45;;;9.90;;
77589;SDS011;66746;51.328;12.332;2023-03-03T02:37:54;20.67;;;9.25;;
77589;SDS011;66746;51.328;12.332;2023-03-03T02:40:24;25.17;;;11.60;;
77589;SDS011;66746;51.328;12.332;2023-03-03T02:42:58;21.75;;;10.63;;
77589;SDS011;66746;51.328;12.332;2023-03-03T02:45:30;21.45;;;9.77;;
77589;SDS011;66746;51.328;12.332;2023-03-03T02:47:56;19.02;;;10.15;;
77589;SDS011;66746;51.328;12.332;2023-03-03T02:50:23;19.73;;;9.65;;
77589;SDS011;66746;51.328;12.332;2023-03-03T02:52:50;20.00;;;10.02;;
77589;SDS011;66746;51.328;12.332;2023-03-03T02:55:17;18.85;;;9.82;;
77589;SDS011;66746;51.328;12.332;2023-03-03T02:57:44;20.73;;;10.25;;
77589;SDS011;66746;51.328;12.332;2023-03-03T03:00:12;17.27;;;9.80;;
77589;SDS011;66746;51.328;12.332;2023-03-03T03:02:39;16.45;;;9.65;;
77589;SDS011;66746;51.328;12.332;2023-03-03T03:05:07;17.42;;;8.90;;
77589;SDS011;66746;51.328;12.332;2023-03-03T03:07:34;15.73;;;8.57;;
77589;SDS011;66746;51.328;12.332;2023-03-03T03:10:01;16.17;;;7.78;;
77589;SDS011;66746;51.328;12.332;2023-03-03T03:12:30;17.50;;;10.07;;
77589;SDS011;66746;51.328;12.332;2023-03-03T03:14:58;18.40;;;8.70;;
77589;SDS011;66746;51.328;12.332;2023-03-03T03:17:26;18.08;;;8.45;;
77589;SDS011;66746;51.328;12.332;2023-03-03T03:19:53;15.75;;;8.30;;
77589;SDS011;66746;51.328;12.332;2023-03-03T03:22:20;19.08;;;8.07;;
77589;SDS011;66746;51.328;12.332;2023-03-03T03:24:47;17.55;;;8.43;;
77589;SDS011;66746;51.328;12.332;2023-03-03T03:27:14;17.42;;;8.45;;
77589;SDS011;66746;51.328;12.332;2023-03-03T03:29:43;15.13;;;7.78;;
77589;SDS011;66746;51.328;12.332;2023-03-03T03:32:10;23.60;;;8.65;;
77589;SDS011;66746;51.328;12.332;2023-03-03T03:34:39;16.25;;;8.52;;
77589;SDS011;66746;51.328;12.332;2023-03-03T03:37:06;19.83;;;9.10;;
77589;SDS011;66746;51.328;12.332;2023-03-03T03:39:33;17.30;;;7.88;;
77589;SDS011;66746;51.328;12.332;2023-03-03T03:42:00;17.10;;;8.35;;
77589;SDS011;66746;51.328;12.332;2023-03-03T03:44:27;16.25;;;7.82;;
77589;SDS011;66746;51.328;12.332;2023-03-03T03:46:54;17.20;;;7.93;;
77589;SDS011;66746;51.328;12.332;2023-03-03T03:49:20;15.75;;;8.68;;
77589;SDS011;66746;51.328;12.332;2023-03-03T03:51:50;18.45;;;8.23;;
77589;SDS011;66746;51.328;12.332;2023-03-03T03:54:19;15.90;;;8.05;;
77589;SDS011;66746;51.328;12.332;2023-03-03T03:56:47;15.80;;;8.45;;
77589;SDS011;66746;51.328;12.332;2023-03-03T03:59:13;17.45;;;7.88;;
77589;SDS011;66746;51.328;12.332;2023-03-03T04:01:40;16.92;;;7.47;;
77589;SDS011;66746;51.328;12.332;2023-03-03T04:04:07;16.40;;;7.35;;
77589;SDS011;66746;51.328;12.332;2023-03-03T04:06:37;17.05;;;7.85;;
77589;SDS011;66746;51.328;12.332;2023-03-03T04:09:06;15.52;;;6.93;;
77589;SDS011;66746;51.328;12.332;2023-03-03T04:11:33;14.10;;;7.65;;
77589;SDS011;66746;51.328;12.332;2023-03-03T04:14:01;17.63;;;9.15;;
77589;SDS011;66746;51.328;12.332;2023-03-03T04:16:28;17.17;;;7.95;;
77589;SDS011;66746;51.328;12.332;2023-03-03T04:18:54;15.45;;;6.65;;
77589;SDS011;66746;51.328;12.332;2023-03-03T04:21:21;14.90;;;8.48;;
77589;SDS011;66746;51.328;12.332;2023-03-03T04:23:49;16.08;;;7.57;;
77589;SDS011;66746;51.328;12.332;2023-03-03T04:26:17;15.82;;;8.35;;
77589;SDS011;66746;51.328;12.332;2023-03-03T04:28:45;17.85;;;7.93;;
77589;SDS011;66746;51.328;12.332;2023-03-03T04:31:11;19.75;;;8.18;;
77589;SDS011;66746;51.328;12.332;2023-03-03T04:33:39;17.15;;;8.05;;
77589;SDS011;66746;51.328;12.332;2023-03-03T04:36:06;14.18;;;6.68;;
77589;SDS011;66746;51.328;12.332;2023-03-03T04:38:33;12.35;;;6.65;;
77589;SDS011;66746;51.328;12.332;2023-03-03T04:40:59;11.52;;;6.38;;
77589;SDS011;66746;51.328;12.332;2023-03-03T04:43:32;14.65;;;5.97;;
77589;SDS011;66746;51.328;12.332;2023-03-03T04:46:00;14.10;;;6.80;;
77589;SDS011;66746;51.328;12.332;2023-03-03T04:48:27;13.40;;;6.30;;
77589;SDS011;66746;51.328;12.332;2023-03-03T04:50:53;16.50;;;7.18;;
77589;SDS011;66746;51.328;12.332;2023-03-03T04:53:20;12.00;;;5.50;;
77589;SDS011;66746;51.328;12.332;2023-03-03T04:55:48;12.25;;;6.88;;
77589;SDS011;66746;51.328;12.332;2023-03-03T04:58:15;14.20;;;6.78;;
77589;SDS011;66746;51.328;12.332;2023-03-03T05:00:43;12.30;;;5.53;;
77589;SDS011;66746;51.328;12.332;2023-03-03T05:03:10;11.55;;;5.85;;
77589;SDS011;66746;51.328;12.332;2023-03-03T05:05:40;11.15;;;5.90;;
77589;SDS011;66746;51.328;12.332;2023-03-03T05:08:07;11.50;;;5.68;;
77589;SDS011;66746;51.328;12.332;2023-03-03T05:10:37;9.85;;;5.13;;
77589;SDS011;66746;51.328;12.332;2023-03-03T05:13:04;10.57;;;5.50;;
77589;SDS011;66746;51.328;12.332;2023-03-03T05:15:31;9.88;;;5.18;;
77589;SDS011;66746;51.328;12.332;2023-03-03T05:17:59;11.00;;;5.30;;
77589;SDS011;66746;51.328;12.332;2023-03-03T05:20:25;11.85;;;5.13;;
77589;SDS011;66746;51.328;12.332;2023-03-03T05:22:52;8.52;;;5.40;;
77589;SDS011;66746;51.328;12.332;2023-03-03T05:25:19;11.95;;;5.57;;
77589;SDS011;66746;51.328;12.332;2023-03-03T05:27:46;12.00;;;5.78;;
77589;SDS011;66746;51.328;12.332;2023-03-03T05:30:12;11.65;;;6.28;;
77589;SDS011;66746;51.328;12.332;2023-03-03T05:32:39;10.80;;;6.80;;
77589;SDS011;66746;51.328;12.332;2023-03-03T05:35:12;12.35;;;6.63;;
77589;SDS011;66746;51.328;12.332;2023-03-03T05:37:38;13.02;;;6.50;;
77589;SDS011;66746;51.328;12.332;2023-03-03T05:40:06;13.18;;;6.60;;
77589;SDS011;66746;51.328;12.332;2023-03-03T05:42:34;12.25;;;6.72;;
77589;SDS011;66746;51.328;12.332;2023-03-03T05:45:00;13.40;;;6.15;;
77589;SDS011;66746;51.328;12.332;2023-03-03T05:47:27;9.27;;;4.95;;
77589;SDS011;66746;51.328;12.332;2023-03-03T05:49:54;12.40;;;5.75;;
77589;SDS011;66746;51.328;12.332;2023-03-03T05:52:22;11.77;;;5.57;;
77589;SDS011;66746;51.328;12.332;2023-03-03T05:54:48;13.43;;;7.07;;
77589;SDS011;66746;51.328;12.332;2023-03-03T05:57:15;12.40;;;5.75;;
77589;SDS011;66746;51.328;12.332;2023-03-03T05:59:41;11.48;;;6.78;;
77589;SDS011;66746;51.328;12.332;2023-03-03T06:02:11;13.07;;;6.03;;
77589;SDS011;66746;51.328;12.332;2023-03-03T06:04:38;10.93;;;5.32;;
77589;SDS011;66746;51.328;12.332;2023-03-03T06:07:04;12.25;;;5.43;;
77589;SDS011;66746;51.328;12.332;2023-03-03T06:09:32;13.50;;;7.43;;
77589;SDS011;66746;51.328;12.332;2023-03-03T06:11:58;13.13;;;7.30;;
77589;SDS011;66746;51.328;12.332;2023-03-03T06:14:25;17.83;;;7.07;;
77589;SDS011;66746;51.328;12.332;2023-03-03T06:16:58;13.65;;;6.65;;
77589;SDS011;66746;51.328;12.332;2023-03-03T06:19:25;13.10;;;6.78;;
77589;SDS011;66746;51.328;12.332;2023-03-03T06:21:51;14.32;;;6.93;;
77589;SDS011;66746;51.328;12.332;2023-03-03T06:24:18;14.57;;;7.78;;
77589;SDS011;66746;51.328;12.332;2023-03-03T06:26:58;14.85;;;6.90;;
77589;SDS011;66746;51.328;12.332;2023-03-03T06:29:29;14.27;;;8.43;;
77589;SDS011;66746;51.328;12.332;2023-03-03T06:31:56;16.25;;;7.55;;
77589;SDS011;66746;51.328;12.332;2023-03-03T06:34:23;14.50;;;7.50;;
77589;SDS011;66746;51.328;12.332;2023-03-03T06:36:49;13.15;;;5.93;;
77589;SDS011;66746;51.328;12.332;2023-03-03T06:39:16;15.50;;;7.97;;
77589;SDS011;66746;51.328;12.332;2023-03-03T06:41:46;17.30;;;7.65;;
77589;SDS011;66746;51.328;12.332;2023-03-03T06:44:14;14.40;;;7.40;;
77589;SDS011;66746;51.328;12.332;2023-03-03T06:46:59;15.32;;;7.78;;
77589;SDS011;66746;51.328;12.332;2023-03-03T06:49:27;17.92;;;8.32;;
77589;SDS011;66746;51.328;12.332;2023-03-03T06:51:53;13.07;;;6.95;;
77589;SDS011;66746;51.328;12.332;2023-03-03T06:54:20;14.38;;;7.32;;
77589;SDS011;66746;51.328;12.332;2023-03-03T06:56:57;12.68;;;6.63;;
77589;SDS011;66746;51.328;12.332;2023-03-03T06:59:30;16.55;;;7.10;;
77589;SDS011;66746;51.328;12.332;2023-03-03T07:02:03;13.98;;;6.88;;
77589;SDS011;66746;51.328;12.332;2023-03-03T07:04:40;11.88;;;6.38;;
77589;SDS011;66746;51.328;12.332;2023-03-03T07:07:09;12.95;;;7.30;;
77589;SDS011;66746;51.328;12.332;2023-03-03T07:09:42;13.85;;;6.68;;
77589;SDS011;66746;51.328;12.332;2023-03-03T07:12:10;13.88;;;6.50;;
77589;SDS011;66746;51.328;12.332;2023-03-03T07:14:42;13.80;;;6.90;;
77589;SDS011;66746;51.328;12.332;2023-03-03T07:17:12;15.00;;;6.60;;
77589;SDS011;66746;51.328;12.332;2023-03-03T07:19:40;12.23;;;6.88;;
77589;SDS011;66746;51.328;12.332;2023-03-03T07:22:11;14.65;;;7.80;;
77589;SDS011;66746;51.328;12.332;2023-03-03T07:24:43;15.00;;;7.25;;
77589;SDS011;66746;51.328;12.332;2023-03-03T07:27:19;14.40;;;7.75;;
77589;SDS011;66746;51.328;12.332;2023-03-03T07:30:32;14.73;;;6.93;;
77589;SDS011;66746;51.328;12.332;2023-03-03T07:32:59;15.65;;;8.50;;
77589;SDS011;66746;51.328;12.332;2023-03-03T07:35:28;17.85;;;7.88;;
77589;SDS011;66746;51.328;12.332;2023-03-03T07:38:08;13.18;;;6.13;;
77589;SDS011;66746;51.328;12.332;2023-03-03T07:40:47;15.43;;;7.78;;
77589;SDS011;66746;51.328;12.332;2023-03-03T07:43:20;14.18;;;6.72;;
77589;SDS011;66746;51.328;12.332;2023-03-03T07:45:58;12.75;;;6.45;;
77589;SDS011;66746;51.328;12.332;2023-03-03T07:48:41;12.18;;;6.43;;
77589;SDS011;66746;51.328;12.332;2023-03-03T07:51:35;12.80;;;6.13;;
77589;SDS011;66746;51.328;12.332;2023-03-03T07:54:12;13.00;;;6.63;;
77589;SDS011;66746;51.328;12.332;2023-03-03T07:56:43;14.00;;;7.75;;
77589;SDS011;66746;51.328;12.332;2023-03-03T07:59:15;16.42;;;7.65;;
77589;SDS011;66746;51.328;12.332;2023-03-03T08:01:47;15.43;;;7.65;;
77589;SDS011;66746;51.328;12.332;2023-03-03T08:04:17;15.48;;;8.48;;
77589;SDS011;66746;51.328;12.332;2023-03-03T08:06:48;12.90;;;7.72;;
77589;SDS011;66746;51.328;12.332;2023-03-03T08:09:40;14.43;;;7.05;;
77589;SDS011;66746;51.328;12.332;2023-03-03T08:12:13;14.88;;;7.03;;
77589;SDS011;66746;51.328;12.332;2023-03-03T08:14:44;16.73;;;7.55;;
77589;SDS011;66746;51.328;12.332;2023-03-03T08:17:16;18.42;;;8.95;;
77589;SDS011;66746;51.328;12.332;2023-03-03T08:19:45;16.92;;;8.57;;
77589;SDS011;66746;51.328;12.332;2023-03-03T08:22:14;12.77;;;6.75;;
77589;SDS011;66746;51.328;12.332;2023-03-03T08:24:42;13.45;;;6.68;;
77589;SDS011;66746;51.328;12.332;2023-03-03T08:27:11;15.60;;;6.75;;
77589;SDS011;66746;51.328;12.332;2023-03-03T08:29:42;16.77;;;7.13;;
77589;SDS011;66746;51.328;12.332;2023-03-03T08:32:08;16.40;;;7.18;;
77589;SDS011;66746;51.328;12.332;2023-03-03T08:34:43;14.13;;;6.57;;
77589;SDS011;66746;51.328;12.332;2023-03-03T08:37:15;12.77;;;6.30;;
77589;SDS011;66746;51.328;12.332;2023-03-03T08:39:49;12.10;;;6.35;;
77589;SDS011;66746;51.328;12.332;2023-03-03T08:42:16;17.15;;;8.05;;
77589;SDS011;66746;51.328;12.332;2023-03-03T08:44:46;15.23;;;7.07;;
77589;SDS011;66746;51.328;12.332;2023-03-03T08:47:12;15.13;;;7.63;;
77589;SDS011;66746;51.328;12.332;2023-03-03T08:49:45;12.93;;;7.10;;
77589;SDS011;66746;51.328;12.332;2023-03-03T08:52:15;16.10;;;6.97;;
77589;SDS011;66746;51.328;12.332;2023-03-03T08:54:44;15.43;;;7.88;;
77589;SDS011;66746;51.328;12.332;2023-03-03T08:57:17;13.85;;;7.15;;
77589;SDS011;66746;51.328;12.332;2023-03-03T08:59:44;16.48;;;7.45;;
77589;SDS011;66746;51.328;12.332;2023-03-03T09:02:16;16.05;;;7.57;;
77589;SDS011;66746;51.328;12.332;2023-03-03T09:04:44;11.68;;;6.53;;
77589;SDS011;66746;51.328;12.332;2023-03-03T09:07:13;13.60;;;7.70;;
77589;SDS011;66746;51.328;12.332;2023-03-03T09:09:39;16.95;;;6.90;;
77589;SDS011;66746;51.328;12.332;2023-03-03T09:12:13;15.75;;;7.38;;
77589;SDS011;66746;51.328;12.332;2023-03-03T09:14:44;15.05;;;7.65;;
77589;SDS011;66746;51.328;12.332;2023-03-03T09:17:25;18.90;;;8.55;;
77589;SDS011;66746;51.328;12.332;2023-03-03T09:19:59;15.38;;;7.13;;
77589;SDS011;66746;51.328;12.332;2023-03-03T09:22:36;18.08;;;8.43;;
77589;SDS011;66746;51.328;12.332;2023-03-03T09:27:56;16.08;;;9.00;;
77589;SDS011;66746;51.328;12.332;2023-03-03T09:30:28;15.07;;;8.05;;
77589;SDS011;66746;51.328;12.332;2023-03-03T09:33:00;15.23;;;7.60;;
77589;SDS011;66746;51.328;12.332;2023-03-03T09:35:35;15.30;;;7.65;;
77589;SDS011;66746;51.328;12.332;2023-03-03T09:38:09;16.75;;;7.32;;
77589;SDS011;66746;51.328;12.332;2023-03-03T09:40:48;12.40;;;6.90;;
77589;SDS011;66746;51.328;12.332;2023-03-03T09:43:19;15.25;;;8.15;;
77589;SDS011;66746;51.328;12.332;2023-03-03T09:45:57;16.88;;;7.53;;
77589;SDS011;66746;51.328;12.332;2023-03-03T09:48:38;16.15;;;7.43;;
77589;SDS011;66746;51.328;12.332;2023-03-03T09:51:18;20.15;;;8.75;;
77589;SDS011;66746;51.328;12.332;2023-03-03T09:53:59;16.88;;;6.88;;
77589;SDS011;66746;51.328;12.332;2023-03-03T09:56:34;20.27;;;7.90;;
77589;SDS011;66746;51.328;12.332;2023-03-03T09:59:12;16.02;;;7.53;;
77589;SDS011;66746;51.328;12.332;2023-03-03T10:01:50;13.55;;;7.20;;
77589;SDS011;66746;51.328;12.332;2023-03-03T10:04:34;15.85;;;6.72;;
77589;SDS011;66746;51.328;12.332;2023-03-03T10:07:19;18.15;;;7.53;;
77589;SDS011;66746;51.328;12.332;2023-03-03T10:09:56;14.00;;;7.55;;
77589;SDS011;66746;51.328;12.332;2023-03-03T10:12:31;17.67;;;7.82;;
77589;SDS011;66746;51.328;12.332;2023-03-03T10:15:12;14.63;;;6.63;;
77589;SDS011;66746;51.328;12.332;2023-03-03T10:17:50;15.43;;;7.80;;
77589;SDS011;66746;51.328;12.332;2023-03-03T10:20:31;14.27;;;7.13;;
77589;SDS011;66746;51.328;12.332;2023-03-03T10:23:19;19.75;;;9.15;;
77589;SDS011;66746;51.328;12.332;2023-03-03T10:25:52;15.10;;;6.65;;
77589;SDS011;66746;51.328;12.332;2023-03-03T10:28:42;13.88;;;7.45;;
77589;SDS011;66746;51.328;12.332;2023-03-03T10:31:27;18.00;;;7.13;;
77589;SDS011;66746;51.328;12.332;2023-03-03T10:34:15;17.45;;;7.68;;
77589;SDS011;66746;51.328;12.332;2023-03-03T10:36:54;18.10;;;7.55;;
77589;SDS011;66746;51.328;12.332;2023-03-03T10:39:39;18.90;;;7.38;;
77589;SDS011;66746;51.328;12.332;2023-03-03T10:42:23;16.25;;;8.77;;
77589;SDS011;66746;51.328;12.332;2023-03-03T10:45:04;17.65;;;7.00;;
77589;SDS011;66746;51.328;12.332;2023-03-03T10:50:35;19.58;;;7.25;;
77589;SDS011;66746;51.328;12.332;2023-03-03T10:53:17;16.42;;;7.60;;
77589;SDS011;66746;51.328;12.332;2023-03-03T10:55:51;15.48;;;6.97;;
77589;SDS011;66746;51.328;12.332;2023-03-03T10:58:36;18.83;;;8.60;;
77589;SDS011;66746;51.328;12.332;2023-03-03T11:01:12;18.38;;;7.70;;
77589;SDS011;66746;51.328;12.332;2023-03-03T11:04:11;21.55;;;8.70;;
77589;SDS011;66746;51.328;12.332;2023-03-03T11:07:00;16.75;;;7.22;;
77589;SDS011;66746;51.328;12.332;2023-03-03T11:09:35;20.92;;;7.50;;
77589;SDS011;66746;51.328;12.332;2023-03-03T11:15:22;19.08;;;6.35;;
77589;SDS011;66746;51.328;12.332;2023-03-03T11:18:02;18.15;;;8.90;;
77589;SDS011;66746;51.328;12.332;2023-03-03T11:20:40;15.75;;;6.85;;
77589;SDS011;66746;51.328;12.332;2023-03-03T11:23:28;21.48;;;8.00;;
77589;SDS011;66746;51.328;12.332;2023-03-03T11:26:24;23.85;;;8.93;;
77589;SDS011;66746;51.328;12.332;2023-03-03T11:29:17;20.25;;;8.30;;
77589;SDS011;66746;51.328;12.332;2023-03-03T11:31:52;21.67;;;9.50;;
77589;SDS011;66746;51.328;12.332;2023-03-03T11:34:31;21.70;;;8.35;;
77589;SDS011;66746;51.328;12.332;2023-03-03T11:37:16;17.90;;;7.97;;
77589;SDS011;66746;51.328;12.332;2023-03-03T11:39:49;16.42;;;7.03;;
77589;SDS011;66746;51.328;12.332;2023-03-03T11:42:20;22.08;;;8.52;;
77589;SDS011;66746;51.328;12.332;2023-03-03T11:44:54;24.45;;;10.48;;
77589;SDS011;66746;51.328;12.332;2023-03-03T11:47:23;19.27;;;8.30;;
77589;SDS011;66746;51.328;12.332;2023-03-03T11:49:58;18.50;;;8.18;;
77589;SDS011;66746;51.328;12.332;2023-03-03T11:52:30;18.67;;;7.90;;
77589;SDS011;66746;51.328;12.332;2023-03-03T11:55:12;22.60;;;9.18;;
77589;SDS011;66746;51.328;12.332;2023-03-03T11:57:43;19.83;;;9.38;;
77589;SDS011;66746;51.328;12.332;2023-03-03T12:00:19;17.88;;;8.98;;
77589;SDS011;66746;51.328;12.332;2023-03-03T12:02:54;20.48;;;9.40;;
77589;SDS011;66746;51.328;12.332;2023-03-03T12:05:31;18.63;;;9.02;;
77589;SDS011;66746;51.328;12.332;2023-03-03T12:08:06;20.85;;;9.00;;
77589;SDS011;66746;51.328;12.332;2023-03-03T12:10:42;21.17;;;8.40;;
77589;SDS011;66746;51.328;12.332;2023-03-03T12:13:16;17.55;;;8.20;;
77589;SDS011;66746;51.328;12.332;2023-03-03T12:15:51;19.88;;;9.50;;
77589;SDS011;66746;51.328;12.332;2023-03-03T12:18:31;23.55;;;10.40;;
77589;SDS011;66746;51.328;12.332;2023-03-03T12:21:12;17.20;;;8.02;;
77589;SDS011;66746;51.328;12.332;2023-03-03T12:24:00;16.08;;;7.68;;
77589;SDS011;66746;51.328;12.332;2023-03-03T12:26:43;20.95;;;9.23;;
77589;SDS011;66746;51.328;12.332;2023-03-03T12:29:18;17.80;;;8.00;;
77589;SDS011;66746;51.328;12.332;2023-03-03T12:31:54;15.70;;;6.97;;
77589;SDS011;66746;51.328;12.332;2023-03-03T12:34:31;19.05;;;7.97;;
77589;SDS011;66746;51.328;12.332;2023-03-03T12:37:15;17.73;;;7.35;;
77589;SDS011;66746;51.328;12.332;2023-03-03T12:39:51;15.40;;;7.90;;
77589;SDS011;66746;51.328;12.332;2023-03-03T12:42:32;17.08;;;7.25;;
77589;SDS011;66746;51.328;12.332;2023-03-03T12:45:22;19.52;;;7.85;;
77589;SDS011;66746;51.328;12.332;2023-03-03T12:48:04;21.10;;;8.30;;
77589;SDS011;66746;51.328;12.332;2023-03-03T12:50:35;17.38;;;7.78;;
77589;SDS011;66746;51.328;12.332;2023-03-03T12:53:19;16.13;;;7.60;;
77589;SDS011;66746;51.328;12.332;2023-03-03T12:55:56;14.75;;;7.63;;
77589;SDS011;66746;51.328;12.332;2023-03-03T12:58:32;15.88;;;7.20;;
77589;SDS011;66746;51.328;12.332;2023-03-03T13:01:12;15.80;;;7.07;;
77589;SDS011;66746;51.328;12.332;2023-03-03T13:03:51;17.10;;;8.18;;
77589;SDS011;66746;51.328;12.332;2023-03-03T13:06:26;19.48;;;9.07;;
77589;SDS011;66746;51.328;12.332;2023-03-03T13:08:57;22.95;;;10.88;;
77589;SDS011;66746;51.328;12.332;2023-03-03T13:11:41;21.85;;;10.15;;
77589;SDS011;66746;51.328;12.332;2023-03-03T13:14:43;24.55;;;10.55;;
77589;SDS011;66746;51.328;12.332;2023-03-03T13:17:17;21.38;;;10.40;;
77589;SDS011;66746;51.328;12.332;2023-03-03T13:19:50;21.58;;;9.70;;
77589;SDS011;66746;51.328;12.332;2023-03-03T13:22:25;26.02;;;11.55;;
77589;SDS011;66746;51.328;12.332;2023-03-03T13:24:58;19.77;;;10.13;;
77589;SDS011;66746;51.328;12.332;2023-03-03T13:27:34;23.92;;;9.57;;
77589;SDS011;66746;51.328;12.332;2023-03-03T13:30:07;23.20;;;10.63;;
77589;SDS011;66746;51.328;12.332;2023-03-03T13:32:42;23.73;;;11.50;;
77589;SDS011;66746;51.328;12.332;2023-03-03T13:35:19;26.98;;;11.80;;
77589;SDS011;66746;51.328;12.332;2023-03-03T13:37:55;25.10;;;11.98;;
77589;SDS011;66746;51.328;12.332;2023-03-03T13:40:25;21.80;;;10.38;;
77589;SDS011;66746;51.328;12.332;2023-03-03T13:43:21;25.98;;;10.98;;
77589;SDS011;66746;51.328;12.332;2023-03-03T13:45:55;23.02;;;10.48;;
77589;SDS011;66746;51.328;12.332;2023-03-03T13:48:36;21.38;;;10.93;;
77589;SDS011;66746;51.328;12.332;2023-03-03T13:51:16;22.52;;;11.57;;
77589;SDS011;66746;51.328;12.332;2023-03-03T13:53:53;26.30;;;12.18;;
77589;SDS011;66746;51.328;12.332;2023-03-03T13:56:29;20.25;;;11.15;;
77589;SDS011;66746;51.328;12.332;2023-03-03T13:59:11;24.67;;;11.35;;
77589;SDS011;66746;51.328;12.332;2023-03-03T14:01:52;20.60;;;9.82;;
77589;SDS011;66746;51.328;12.332;2023-03-03T14:04:29;23.15;;;10.90;;
77589;SDS011;66746;51.328;12.332;2023-03-03T14:07:06;23.73;;;11.48;;
77589;SDS011;66746;51.328;12.332;2023-03-03T14:09:44;22.17;;;9.55;;
77589;SDS011;66746;51.328;12.332;2023-03-03T14:12:21;22.58;;;11.35;;
77589;SDS011;66746;51.328;12.332;2023-03-03T14:14:56;22.15;;;11.23;;
77589;SDS011;66746;51.328;12.332;2023-03-03T14:17:28;21.33;;;9.82;;
77589;SDS011;66746;51.328;12.332;2023-03-03T14:20:02;22.50;;;11.07;;
77589;SDS011;66746;51.328;12.332;2023-03-03T14:22:44;21.75;;;10.90;;
77589;SDS011;66746;51.328;12.332;2023-03-03T14:25:15;19.63;;;9.57;;
77589;SDS011;66746;51.328;12.332;2023-03-03T14:27:53;20.00;;;8.73;;
77589;SDS011;66746;51.328;12.332;2023-03-03T14:30:29;20.83;;;9.48;;
77589;SDS011;66746;51.328;12.332;2023-03-03T14:32:58;19.23;;;9.68;;
77589;SDS011;66746;51.328;12.332;2023-03-03T14:35:29;20.85;;;9.95;;
77589;SDS011;66746;51.328;12.332;2023-03-03T14:38:02;16.08;;;8.68;;
77589;SDS011;66746;51.328;12.332;2023-03-03T14:40:41;19.45;;;9.18;;
77589;SDS011;66746;51.328;12.332;2023-03-03T14:43:23;17.63;;;8.38;;
77589;SDS011;66746;51.328;12.332;2023-03-03T14:45:51;16.90;;;8.60;;
77589;SDS011;66746;51.328;12.332;2023-03-03T14:48:19;18.10;;;8.63;;
77589;SDS011;66746;51.328;12.332;2023-03-03T14:50:48;18.95;;;7.78;;
77589;SDS011;66746;51.328;12.332;2023-03-03T14:53:21;20.17;;;9.65;;
77589;SDS011;66746;51.328;12.332;2023-03-03T14:56:06;21.58;;;10.82;;
77589;SDS011;66746;51.328;12.332;2023-03-03T14:58:40;21.48;;;11.02;;